createdAt,value
2022-11-23T00:01:33.683Z,10.23
2022-11-23T00:04:10.691Z,7.40
2022-11-23T00:06:38.097Z,9.38
2022-11-23T00:09:05.307Z,10.60
2022-11-23T00:11:35.506Z,11.25
2022-11-23T00:14:02.732Z,9.38
2022-11-23T00:16:30.771Z,10.55
2022-11-23T00:19:01.414Z,12.68
2022-11-23T00:21:31.178Z,12.20
2022-11-23T00:23:58.857Z,11.82
2022-11-23T00:26:25.881Z,10.88
2022-11-23T00:28:52.666Z,11.27
2022-11-23T00:31:21.199Z,11.75
2022-11-23T00:33:56.237Z,11.95
2022-11-23T00:36:25.255Z,11.10
2022-11-23T00:38:54.815Z,10.45
2022-11-23T00:41:24.745Z,11.60
2022-11-23T00:43:52.018Z,10.80
2022-11-23T00:46:25.088Z,10.07
2022-11-23T00:48:55.056Z,10.95
2022-11-23T00:51:25.639Z,11.57
2022-11-23T00:53:53.281Z,11.02
2022-11-23T00:56:20.972Z,12.43
2022-11-23T00:58:50.417Z,11.43
2022-11-23T01:01:20.157Z,11.27
2022-11-23T01:03:50.986Z,11.80
2022-11-23T01:06:36.503Z,10.93
2022-11-23T01:09:11.270Z,9.68
2022-11-23T01:11:38.033Z,8.88
2022-11-23T01:14:05.102Z,8.23
2022-11-23T01:16:36.892Z,8.40
2022-11-23T01:19:10.967Z,8.02
2022-11-23T01:21:38.336Z,8.07
2022-11-23T01:24:13.642Z,7.75
2022-11-23T01:26:41.931Z,8.52
2022-11-23T01:29:08.793Z,8.55
2022-11-23T01:31:35.563Z,8.18
2022-11-23T01:34:05.331Z,7.30
2022-11-23T01:36:34.934Z,7.80
2022-11-23T01:39:03.627Z,7.28
2022-11-23T01:41:41.822Z,6.70
2022-11-23T01:44:36.698Z,7.30
2022-11-23T01:47:07.177Z,8.15
2022-11-23T01:49:36.050Z,7.97
2022-11-23T01:52:13.636Z,7.95
2022-11-23T01:54:48.848Z,7.60
2022-11-23T01:57:24.051Z,7.65
2022-11-23T01:59:52.192Z,7.18
2022-11-23T02:02:19.267Z,8.68
2022-11-23T02:04:49.551Z,9.27
2022-11-23T02:07:18.937Z,9.40
2022-11-23T02:09:47.454Z,9.25
2022-11-23T02:12:15.353Z,10.45
2022-11-23T02:14:43.036Z,12.55
2022-11-23T02:17:09.930Z,12.35
2022-11-23T02:20:05.799Z,12.35
2022-11-23T02:22:48.032Z,13.23
2022-11-23T02:25:43.700Z,14.07
2022-11-23T02:30:49.966Z,21.00
2022-11-23T02:33:16.974Z,22.00
2022-11-23T02:35:59.298Z,25.63
2022-11-23T02:38:31.305Z,26.67
2022-11-23T02:40:58.365Z,27.05
2022-11-23T02:43:25.785Z,26.35
2022-11-23T02:46:04.902Z,27.85
2022-11-23T02:48:31.700Z,28.48
2022-11-23T02:50:58.459Z,30.00
2022-11-23T02:53:25.406Z,28.98
2022-11-23T02:55:52.351Z,27.35
2022-11-23T02:58:19.129Z,26.40
2022-11-23T03:00:45.981Z,26.58
2022-11-23T03:03:12.804Z,24.77
2022-11-23T03:05:39.542Z,23.02
2022-11-23T03:08:06.860Z,21.88
2022-11-23T03:10:34.070Z,19.85
2022-11-23T03:13:00.869Z,18.70
2022-11-23T03:15:28.671Z,16.90
2022-11-23T03:17:57.399Z,16.15
2022-11-23T03:20:24.146Z,14.82
2022-11-23T03:22:50.950Z,13.30
2022-11-23T03:25:17.776Z,13.85
2022-11-23T03:27:44.594Z,12.70
2022-11-23T03:30:11.734Z,11.63
2022-11-23T03:32:38.521Z,10.18
2022-11-23T03:35:06.289Z,10.27
2022-11-23T03:37:33.037Z,10.43
2022-11-23T03:39:59.846Z,10.30
2022-11-23T03:42:26.624Z,9.50
2022-11-23T03:44:53.370Z,9.02
2022-11-23T03:47:20.197Z,8.52
2022-11-23T03:49:47.234Z,9.77
2022-11-23T03:52:14.161Z,8.98
2022-11-23T03:54:40.918Z,9.32
2022-11-23T03:57:07.710Z,8.43
2022-11-23T03:59:34.816Z,8.65
2022-11-23T04:02:01.655Z,7.30
2022-11-23T04:04:28.426Z,7.38
2022-11-23T04:06:55.234Z,6.50
2022-11-23T04:09:22.068Z,5.63
2022-11-23T04:11:48.863Z,4.90
2022-11-23T04:14:16.001Z,4.55
2022-11-23T04:16:42.905Z,4.32
2022-11-23T04:19:09.775Z,3.97
2022-11-23T04:21:36.563Z,4.45
2022-11-23T04:24:03.780Z,4.13
2022-11-23T04:26:30.796Z,4.63
2022-11-23T04:28:57.526Z,5.10
2022-11-23T04:31:24.278Z,4.75
2022-11-23T04:33:51.053Z,4.60
2022-11-23T04:36:17.829Z,4.28
2022-11-23T04:38:44.607Z,3.95
2022-11-23T04:41:11.409Z,3.65
2022-11-23T04:43:38.198Z,5.00
2022-11-23T04:46:05.217Z,4.57
2022-11-23T04:48:32.287Z,4.57
2022-11-23T04:50:59.721Z,4.50
2022-11-23T04:53:26.790Z,4.90
2022-11-23T04:55:53.628Z,4.68
2022-11-23T04:58:20.566Z,4.18
2022-11-23T05:00:47.525Z,5.00
2022-11-23T05:03:14.425Z,5.20
2022-11-23T05:05:42.128Z,6.03
2022-11-23T05:08:10.255Z,5.43
2022-11-23T05:10:37.988Z,5.53
2022-11-23T05:13:05.320Z,5.57
2022-11-23T05:15:32.089Z,5.40
2022-11-23T05:18:04.701Z,4.50
2022-11-23T05:20:31.750Z,4.75
2022-11-23T05:22:58.747Z,3.83
2022-11-23T05:25:26.384Z,4.07
2022-11-23T05:27:53.556Z,3.88
2022-11-23T05:30:20.888Z,3.75
2022-11-23T05:32:47.626Z,3.58
2022-11-23T05:35:15.155Z,3.28
2022-11-23T05:37:42.494Z,4.22
2022-11-23T05:40:11.051Z,3.25
2022-11-23T05:42:37.895Z,3.70
2022-11-23T05:45:11.049Z,3.92
2022-11-23T05:47:38.851Z,3.95
2022-11-23T05:50:06.518Z,3.67
2022-11-23T05:52:33.664Z,3.72
2022-11-23T05:55:00.398Z,3.55
2022-11-23T05:57:27.133Z,3.42
2022-11-23T05:59:53.994Z,3.15
2022-11-23T06:02:20.740Z,2.97
2022-11-23T06:04:47.486Z,2.75
2022-11-23T06:07:14.568Z,2.53
2022-11-23T06:09:41.335Z,2.63
2022-11-23T06:12:08.367Z,2.60
2022-11-23T06:14:35.329Z,2.63
2022-11-23T06:17:02.088Z,2.53
2022-11-23T06:19:30.691Z,2.53
2022-11-23T06:21:58.207Z,2.38
2022-11-23T06:24:25.469Z,2.97
2022-11-23T06:26:53.442Z,2.60
2022-11-23T06:29:20.988Z,2.72
2022-11-23T06:31:47.986Z,2.97
2022-11-23T06:34:14.893Z,2.80
2022-11-23T06:36:41.848Z,2.45
2022-11-23T06:39:08.943Z,2.30
2022-11-23T06:41:36.061Z,2.45
2022-11-23T06:44:03.613Z,3.28
2022-11-23T06:46:30.393Z,2.67
2022-11-23T06:48:58.096Z,3.00
2022-11-23T06:51:24.966Z,3.05
2022-11-23T06:53:51.737Z,3.10
2022-11-23T06:56:18.582Z,2.80
2022-11-23T06:58:45.437Z,3.42
2022-11-23T07:01:12.366Z,3.45
2022-11-23T07:03:39.615Z,2.88
2022-11-23T07:06:11.156Z,2.85
2022-11-23T07:08:43.809Z,2.78
2022-11-23T07:11:11.971Z,3.10
2022-11-23T07:13:40.035Z,2.65
2022-11-23T07:16:07.687Z,3.53
2022-11-23T07:18:34.462Z,3.47
2022-11-23T07:21:01.377Z,3.53
2022-11-23T07:23:28.223Z,3.83
2022-11-23T07:25:55.471Z,3.40
2022-11-23T07:28:22.731Z,3.50
2022-11-23T07:30:52.450Z,3.83
2022-11-23T07:33:19.376Z,4.03
2022-11-23T07:35:46.291Z,3.35
2022-11-23T07:38:23.382Z,3.42
2022-11-23T07:40:51.441Z,3.58
2022-11-23T07:43:18.217Z,3.90
2022-11-23T07:45:44.995Z,3.55
2022-11-23T07:48:12.348Z,3.80
2022-11-23T07:50:40.278Z,3.70
2022-11-23T07:53:08.211Z,4.05
2022-11-23T07:55:35.229Z,3.70
2022-11-23T07:58:03.124Z,4.18
2022-11-23T08:00:30.601Z,4.50
2022-11-23T08:03:26.004Z,4.18
2022-11-23T08:05:46.827Z,3.67
2022-11-23T08:08:13.670Z,3.70
2022-11-23T08:10:46.112Z,5.53
2022-11-23T08:13:15.592Z,3.10
2022-11-23T08:15:42.387Z,3.00
2022-11-23T08:18:10.354Z,2.53
2022-11-23T08:20:37.145Z,2.13
2022-11-23T08:23:03.870Z,2.22
2022-11-23T08:25:31.196Z,2.15
2022-11-23T08:28:05.296Z,2.10
2022-11-23T08:30:33.848Z,2.13
2022-11-23T08:33:07.710Z,2.10
2022-11-23T08:35:39.944Z,1.98
2022-11-23T08:38:09.197Z,2.10
2022-11-23T08:40:37.034Z,1.85
2022-11-23T08:43:05.427Z,1.33
2022-11-23T08:45:32.351Z,1.30
2022-11-23T08:48:04.234Z,1.20
2022-11-23T08:50:34.610Z,1.15
2022-11-23T08:53:01.519Z,1.10
2022-11-23T08:55:29.321Z,1.20
2022-11-23T08:58:00.068Z,0.82
2022-11-23T09:00:27.966Z,0.70
2022-11-23T09:02:55.656Z,0.80
2022-11-23T09:05:22.627Z,0.80
2022-11-23T09:07:49.441Z,0.63
2022-11-23T09:10:18.989Z,0.50
2022-11-23T09:12:47.833Z,1.00
2022-11-23T09:15:15.091Z,0.90
2022-11-23T09:17:42.198Z,0.85
2022-11-23T09:20:10.439Z,0.70
2022-11-23T09:22:37.522Z,0.60
2022-11-23T09:25:06.848Z,1.02
2022-11-23T09:27:33.779Z,1.20
2022-11-23T09:30:00.537Z,0.90
2022-11-23T09:32:27.926Z,0.90
2022-11-23T09:34:54.700Z,0.75
2022-11-23T09:37:21.450Z,0.73
2022-11-23T09:39:48.323Z,2.65
2022-11-23T09:42:33.751Z,0.80
2022-11-23T09:45:21.436Z,0.73
2022-11-23T09:48:09.464Z,0.90
2022-11-23T09:50:48.520Z,1.00
2022-11-23T09:53:23.438Z,0.90
2022-11-23T09:58:22.510Z,3.30
2022-11-23T10:01:15.170Z,1.92
2022-11-23T10:03:48.876Z,1.20
2022-11-23T10:06:29.418Z,0.90
2022-11-23T10:09:27.447Z,1.20
2022-11-23T10:12:18.542Z,1.70
2022-11-23T10:15:04.339Z,2.63
2022-11-23T10:17:56.713Z,1.63
2022-11-23T10:20:57.147Z,1.10
2022-11-23T10:23:55.570Z,1.25
2022-11-23T10:26:33.108Z,7.35
2022-11-23T10:29:14.308Z,5.38
2022-11-23T10:31:47.369Z,2.38
2022-11-23T10:34:20.008Z,1.40
2022-11-23T10:36:46.780Z,1.30
2022-11-23T10:39:26.459Z,1.58
2022-11-23T10:41:54.940Z,1.63
2022-11-23T10:44:38.524Z,1.98
2022-11-23T10:47:05.687Z,2.15
2022-11-23T10:49:36.305Z,2.42
2022-11-23T10:52:10.117Z,2.20
2022-11-23T10:54:50.425Z,2.67
2022-11-23T10:57:33.935Z,1.95
2022-11-23T11:00:27.212Z,1.90
2022-11-23T11:02:58.873Z,2.10
2022-11-23T11:05:46.265Z,2.42
2022-11-23T11:08:17.509Z,2.08
2022-11-23T11:10:50.250Z,2.30
2022-11-23T11:13:42.829Z,2.38
2022-11-23T11:16:31.009Z,2.25
2022-11-23T11:18:58.165Z,2.47
2022-11-23T11:21:35.823Z,2.45
2022-11-23T11:24:04.921Z,2.05
2022-11-23T11:26:35.997Z,2.75
2022-11-23T11:29:10.638Z,2.17
2022-11-23T11:31:57.084Z,2.47
2022-11-23T11:34:35.696Z,2.50
2022-11-23T11:37:50.443Z,2.45
2022-11-23T11:40:38.125Z,2.30
2022-11-23T11:43:31.290Z,2.53
2022-11-23T11:46:32.295Z,2.20
2022-11-23T11:49:37.029Z,1.98
2022-11-23T11:52:11.243Z,2.42
2022-11-23T11:54:50.149Z,2.38
2022-11-23T11:57:43.058Z,3.13
2022-11-23T12:00:20.568Z,2.72
2022-11-23T12:03:34.298Z,2.65
2022-11-23T12:06:28.380Z,2.60
2022-11-23T12:09:17.227Z,2.42
2022-11-23T12:11:44.354Z,2.42
2022-11-23T12:14:15.738Z,3.60
2022-11-23T12:16:45.372Z,2.70
2022-11-23T12:19:32.307Z,2.40
2022-11-23T12:22:12.866Z,2.92
2022-11-23T12:25:14.428Z,3.28
2022-11-23T12:28:30.048Z,2.78
2022-11-23T12:31:23.771Z,2.15
2022-11-23T12:34:44.553Z,3.28
2022-11-23T12:37:27.046Z,3.38
2022-11-23T12:40:39.948Z,2.58
2022-11-23T12:43:16.355Z,2.22
2022-11-23T12:46:07.423Z,2.67
2022-11-23T12:49:05.922Z,2.85
2022-11-23T12:51:51.721Z,2.75
2022-11-23T12:54:36.370Z,2.47
2022-11-23T12:57:30.455Z,2.38
2022-11-23T13:00:07.594Z,1.55
2022-11-23T13:02:57.107Z,1.83
2022-11-23T13:05:57.892Z,1.42
2022-11-23T13:09:02.567Z,1.52
2022-11-23T13:12:03.805Z,1.20
2022-11-23T13:15:17.283Z,1.33
2022-11-23T13:18:33.541Z,1.17
2022-11-23T13:21:15.880Z,1.58
2022-11-23T13:23:42.734Z,1.42
2022-11-23T13:26:17.262Z,1.38
2022-11-23T13:28:47.056Z,1.38
2022-11-23T13:31:17.217Z,1.38
2022-11-23T13:33:50.009Z,1.42
2022-11-23T13:37:04.381Z,1.20
2022-11-23T13:39:45.371Z,1.30
2022-11-23T13:42:12.975Z,1.33
2022-11-23T13:44:40.467Z,1.10
2022-11-23T13:47:19.931Z,1.00
2022-11-23T13:49:51.459Z,1.05
2022-11-23T13:52:21.568Z,1.02
2022-11-23T13:55:08.827Z,0.90
2022-11-23T13:57:39.721Z,0.82
2022-11-23T14:00:44.297Z,0.73
2022-11-23T14:03:49.457Z,0.80
2022-11-23T14:06:35.030Z,0.68
2022-11-23T14:09:33.132Z,0.65
2022-11-23T14:12:35.254Z,0.60
2022-11-23T14:15:16.097Z,0.63
2022-11-23T14:18:07.916Z,0.63
2022-11-23T14:20:52.711Z,0.60
2022-11-23T14:23:55.594Z,0.82
2022-11-23T14:26:42.536Z,0.65
2022-11-23T14:29:32.365Z,0.82
2022-11-23T14:32:18.203Z,0.70
2022-11-23T14:34:54.894Z,0.80
2022-11-23T14:38:04.122Z,0.63
2022-11-23T14:41:08.260Z,1.05
2022-11-23T14:43:37.116Z,0.50
2022-11-23T14:46:07.391Z,0.90
2022-11-23T14:48:36.171Z,1.05
2022-11-23T14:51:12.146Z,1.00
2022-11-23T14:53:47.191Z,1.00
2022-11-23T14:56:34.491Z,1.35
2022-11-23T14:59:07.130Z,1.20
2022-11-23T15:01:35.571Z,1.10
2022-11-23T15:04:18.595Z,0.90
2022-11-23T15:06:50.796Z,1.10
2022-11-23T15:10:15.050Z,1.30
2022-11-23T15:12:45.677Z,1.45
2022-11-23T15:15:27.111Z,1.85
2022-11-23T15:18:02.821Z,2.00
2022-11-23T15:20:46.376Z,1.10
2022-11-23T15:23:22.562Z,1.80
2022-11-23T15:25:54.595Z,2.20
2022-11-23T15:28:28.347Z,2.70
2022-11-23T15:30:58.564Z,3.35
2022-11-23T15:33:26.368Z,2.35
2022-11-23T15:35:54.977Z,2.38
2022-11-23T15:38:23.787Z,2.15
2022-11-23T15:40:51.499Z,1.83
2022-11-23T15:43:19.903Z,1.92
2022-11-23T15:45:46.716Z,1.75
2022-11-23T15:48:42.688Z,1.70
2022-11-23T15:51:38.325Z,1.40
2022-11-23T15:54:06.422Z,2.00
2022-11-23T15:56:38.542Z,1.58
2022-11-23T15:59:50.691Z,2.33
2022-11-23T16:02:28.751Z,1.80
2022-11-23T16:05:24.179Z,1.65
2022-11-23T16:07:59.287Z,2.00
2022-11-23T16:10:28.315Z,2.42
2022-11-23T16:13:00.884Z,2.20
2022-11-23T16:15:27.677Z,2.47
2022-11-23T16:17:54.632Z,2.88
2022-11-23T16:20:24.967Z,2.58
2022-11-23T16:22:53.697Z,2.80
2022-11-23T16:25:29.953Z,3.50
2022-11-23T16:28:16.303Z,2.80
2022-11-23T16:30:46.558Z,3.95
2022-11-23T16:33:16.329Z,3.67
2022-11-23T16:35:43.189Z,4.03
2022-11-23T16:38:10.282Z,4.22
2022-11-23T16:40:37.415Z,4.55
2022-11-23T16:43:05.100Z,5.00
2022-11-23T16:45:33.360Z,4.60
2022-11-23T16:48:02.714Z,3.78
2022-11-23T16:50:33.205Z,3.88
2022-11-23T16:53:14.166Z,4.57
2022-11-23T16:55:43.768Z,3.50
2022-11-23T16:58:15.581Z,4.15
2022-11-23T17:00:45.863Z,4.22
2022-11-23T17:03:15.483Z,3.10
2022-11-23T17:05:42.410Z,4.30
2022-11-23T17:08:09.359Z,3.95
2022-11-23T17:10:40.908Z,3.70
2022-11-23T17:13:17.698Z,3.40
2022-11-23T17:15:44.478Z,3.28
2022-11-23T17:18:16.059Z,3.25
2022-11-23T17:20:43.026Z,3.22
2022-11-23T17:23:10.527Z,3.25
2022-11-23T17:25:38.621Z,3.47
2022-11-23T17:28:15.862Z,3.85
2022-11-23T17:30:43.096Z,4.00
2022-11-23T17:33:12.225Z,4.25
2022-11-23T17:35:41.394Z,3.40
2022-11-23T17:38:16.408Z,2.30
2022-11-23T17:40:43.477Z,1.98
2022-11-23T17:43:14.416Z,2.42
2022-11-23T17:45:42.413Z,2.13
2022-11-23T17:48:13.701Z,2.22
2022-11-23T17:50:40.576Z,2.47
2022-11-23T17:53:07.518Z,2.40
2022-11-23T17:55:34.332Z,2.30
2022-11-23T17:58:01.199Z,2.30
2022-11-23T18:00:29.890Z,2.33
2022-11-23T18:02:56.636Z,2.53
2022-11-23T18:05:23.374Z,3.10
2022-11-23T18:07:53.865Z,3.00
2022-11-23T18:10:20.927Z,3.55
2022-11-23T18:12:47.839Z,2.78
2022-11-23T18:15:15.178Z,3.53
2022-11-23T18:17:42.138Z,3.47
2022-11-23T18:20:10.443Z,3.20
2022-11-23T18:22:37.739Z,2.92
2022-11-23T18:25:04.992Z,3.33
2022-11-23T18:27:32.271Z,2.95
2022-11-23T18:29:59.039Z,3.20
2022-11-23T18:32:25.827Z,3.20
2022-11-23T18:34:52.623Z,3.58
2022-11-23T18:37:19.446Z,3.83
2022-11-23T18:39:46.454Z,3.22
2022-11-23T18:42:14.337Z,3.55
2022-11-23T18:44:41.187Z,3.28
2022-11-23T18:47:08.395Z,2.88
2022-11-23T18:49:35.359Z,2.83
2022-11-23T18:52:02.377Z,2.80
2022-11-23T18:54:29.288Z,2.35
2022-11-23T18:56:56.042Z,2.28
2022-11-23T19:02:11.242Z,1.70
2022-11-23T19:04:38.913Z,1.83
2022-11-23T19:07:06.328Z,1.33
2022-11-23T19:09:34.764Z,1.23
2022-11-23T19:12:02.177Z,1.98
2022-11-23T19:14:28.913Z,1.63
2022-11-23T19:16:55.690Z,1.58
2022-11-23T19:19:22.467Z,0.90
2022-11-23T19:21:49.729Z,1.65
2022-11-23T19:24:16.465Z,1.38
2022-11-23T19:26:43.302Z,1.45
2022-11-23T19:29:10.345Z,1.20
2022-11-23T19:31:37.246Z,1.00
2022-11-23T19:34:06.233Z,1.30
2022-11-23T19:36:36.678Z,1.20
2022-11-23T19:39:05.735Z,0.90
2022-11-23T19:41:32.928Z,1.00
2022-11-23T19:44:01.020Z,1.10
2022-11-23T19:46:30.264Z,0.85
2022-11-23T19:48:58.295Z,0.85
2022-11-23T19:51:26.754Z,1.25
2022-11-23T19:53:57.332Z,1.20
2022-11-23T19:56:26.349Z,0.90
2022-11-23T19:59:02.340Z,0.82
2022-11-23T20:01:32.321Z,0.90
2022-11-23T20:04:09.443Z,1.00
2022-11-23T20:06:39.665Z,0.93
2022-11-23T20:09:13.289Z,0.95
2022-11-23T20:11:42.417Z,1.40
2022-11-23T20:14:12.750Z,1.48
2022-11-23T20:16:40.002Z,1.30
2022-11-23T20:19:09.728Z,0.80
2022-11-23T20:21:37.681Z,1.10
2022-11-23T20:24:12.475Z,1.00
2022-11-23T20:26:41.087Z,1.13
2022-11-23T20:29:10.525Z,1.52
2022-11-23T20:31:38.387Z,1.83
2022-11-23T20:34:08.209Z,2.20
2022-11-23T20:36:38.645Z,2.30
2022-11-23T20:39:10.421Z,2.40
2022-11-23T20:41:38.358Z,2.00
2022-11-23T20:44:11.890Z,1.95
2022-11-23T20:49:26.637Z,3.17
2022-11-23T20:51:53.514Z,3.45
2022-11-23T20:54:20.250Z,3.50
2022-11-23T20:56:47.178Z,3.90
2022-11-23T20:59:14.148Z,3.28
2022-11-23T21:01:41.129Z,3.60
2022-11-23T21:04:09.232Z,3.10
2022-11-23T21:06:39.343Z,3.35
2022-11-23T21:09:11.365Z,2.92
2022-11-23T21:11:57.190Z,3.95
2022-11-23T21:14:28.085Z,3.10
2022-11-23T21:16:58.862Z,3.10
2022-11-23T21:19:39.830Z,4.72
2022-11-23T21:22:14.726Z,2.80
2022-11-23T21:27:12.688Z,2.63
2022-11-23T21:29:39.580Z,2.10
2022-11-23T21:32:06.630Z,1.98
2022-11-23T21:34:33.926Z,1.83
2022-11-23T21:37:01.354Z,1.98
2022-11-23T21:39:31.636Z,2.30
2022-11-23T21:41:58.977Z,2.15
2022-11-23T21:44:26.541Z,2.67
2022-11-23T21:46:53.493Z,2.40
2022-11-23T21:49:20.385Z,2.83
2022-11-23T21:51:48.707Z,2.40
2022-11-23T21:54:16.256Z,2.17
2022-11-23T21:56:44.954Z,2.05
2022-11-23T21:59:12.540Z,2.15
2022-11-23T22:01:40.723Z,2.08
2022-11-23T22:04:11.931Z,2.10
2022-11-23T22:06:40.416Z,1.98
2022-11-23T22:09:09.807Z,2.78
2022-11-23T22:11:39.608Z,2.55
2022-11-23T22:14:16.168Z,2.88
2022-11-23T22:16:49.788Z,2.20
2022-11-23T22:19:18.221Z,2.28
2022-11-23T22:21:46.329Z,2.83
2022-11-23T22:24:16.381Z,3.25
2022-11-23T22:26:44.229Z,2.58
2022-11-23T22:29:11.895Z,2.97
2022-11-23T22:31:38.924Z,2.63
2022-11-23T22:34:09.423Z,2.63
2022-11-23T22:36:36.446Z,3.35
2022-11-23T22:39:06.597Z,3.03
2022-11-23T22:41:36.804Z,3.20
2022-11-23T22:44:08.626Z,3.50
2022-11-23T22:46:36.901Z,3.50
2022-11-23T22:49:04.026Z,3.33
2022-11-23T22:51:30.820Z,3.25
2022-11-23T22:53:59.960Z,3.42
2022-11-23T22:56:28.926Z,8.70
2022-11-23T22:58:55.794Z,7.93
2022-11-23T23:01:26.972Z,18.73
2022-11-23T23:03:56.274Z,9.30
2022-11-23T23:06:26.477Z,5.93
2022-11-23T23:08:56.173Z,4.65
2022-11-23T23:11:24.725Z,3.35
2022-11-23T23:13:52.581Z,4.15
2022-11-23T23:16:20.571Z,4.30
2022-11-23T23:18:47.598Z,3.15
2022-11-23T23:21:20.623Z,3.63
2022-11-23T23:23:51.338Z,4.50
2022-11-23T23:26:21.814Z,3.53
2022-11-23T23:28:49.501Z,3.55
2022-11-23T23:31:17.431Z,3.25
2022-11-23T23:33:45.667Z,3.30
2022-11-23T23:36:16.034Z,3.03
2022-11-23T23:38:43.779Z,2.63
2022-11-23T23:41:12.582Z,2.95
2022-11-23T23:43:40.275Z,2.97
2022-11-23T23:46:11.256Z,3.63
2022-11-23T23:48:40.263Z,3.47
2022-11-23T23:51:10.418Z,9.23
2022-11-23T23:53:37.863Z,3.90
2022-11-23T23:56:08.833Z,3.80
2022-11-23T23:58:35.665Z,3.88
